sensor_id;sensor_type;location;lat;lon;timestamp;pressure;altitude;pressure_sealevel;temperature;humidity
52032;BME280;38044;45.148;39.604;2022-10-31T00:01:13;100972.22;;;12.47;84.37
52032;BME280;38044;45.148;39.604;2022-10-31T00:03:39;100965.28;;;12.40;84.11
52032;BME280;38044;45.148;39.604;2022-10-31T00:06:05;100958.59;;;12.38;83.84
52032;BME280;38044;45.148;39.604;2022-10-31T00:08:31;100938.47;;;12.30;84.23
52032;BME280;38044;45.148;39.604;2022-10-31T00:10:57;100932.94;;;12.22;84.16
52032;BME280;38044;45.148;39.604;2022-10-31T00:13:23;100919.84;;;12.15;84.82
52032;BME280;38044;45.148;39.604;2022-10-31T00:15:49;100860.94;;;11.89;84.52
52032;BME280;38044;45.148;39.604;2022-10-31T00:18:14;100835.22;;;11.78;84.37
52032;BME280;38044;45.148;39.604;2022-10-31T00:20:40;100931.19;;;12.50;84.40
52032;BME280;38044;45.148;39.604;2022-10-31T00:23:06;100939.78;;;12.52;84.48
52032;BME280;38044;45.148;39.604;2022-10-31T00:25:35;100908.16;;;12.38;84.42
52032;BME280;38044;45.148;39.604;2022-10-31T00:28:02;100933.53;;;12.56;84.48
52032;BME280;38044;45.148;39.604;2022-10-31T00:30:28;100839.34;;;11.94;84.14
52032;BME280;38044;45.148;39.604;2022-10-31T00:32:54;100838.75;;;11.98;84.34
52032;BME280;38044;45.148;39.604;2022-10-31T00:35:19;100932.94;;;12.59;84.38
52032;BME280;38044;45.148;39.604;2022-10-31T00:37:45;100885.81;;;12.38;84.38
52032;BME280;38044;45.148;39.604;2022-10-31T00:40:11;100898.03;;;12.49;84.20
52032;BME280;38044;45.148;39.604;2022-10-31T00:42:38;100910.03;;;12.57;84.18
52032;BME280;38044;45.148;39.604;2022-10-31T00:45:04;100903.75;;;12.61;84.06
52032;BME280;38044;45.148;39.604;2022-10-31T00:47:30;100829.63;;;12.12;83.92
52032;BME280;38044;45.148;39.604;2022-10-31T00:49:56;100891.66;;;12.59;83.97
52032;BME280;38044;45.148;39.604;2022-10-31T00:52:21;100830.84;;;12.20;83.83
52032;BME280;38044;45.148;39.604;2022-10-31T00:54:47;100886.44;;;12.49;83.99
52032;BME280;38044;45.148;39.604;2022-10-31T00:57:13;100873.75;;;12.49;83.74
52032;BME280;38044;45.148;39.604;2022-10-31T00:59:39;100888.47;;;12.57;83.88
52032;BME280;38044;45.148;39.604;2022-10-31T01:02:04;100791.25;;;12.02;83.92
52032;BME280;38044;45.148;39.604;2022-10-31T01:04:30;100800.66;;;12.04;83.85
52032;BME280;38044;45.148;39.604;2022-10-31T01:06:56;100911.34;;;12.73;83.78
52032;BME280;38044;45.148;39.604;2022-10-31T01:09:22;100892.16;;;12.61;83.91
52032;BME280;38044;45.148;39.604;2022-10-31T01:11:47;100849.53;;;12.30;84.02
52032;BME280;38044;45.148;39.604;2022-10-31T01:14:13;100910.97;;;12.66;84.08
52032;BME280;38044;45.148;39.604;2022-10-31T01:16:39;100833.63;;;12.15;83.88
52032;BME280;38044;45.148;39.604;2022-10-31T01:19:05;100803.06;;;12.06;83.21
52032;BME280;38044;45.148;39.604;2022-10-31T01:21:31;100875.16;;;12.47;83.42
52032;BME280;38044;45.148;39.604;2022-10-31T01:23:57;100806.41;;;11.98;82.87
52032;BME280;38044;45.148;39.604;2022-10-31T01:26:28;100851.22;;;12.26;82.12
52032;BME280;38044;45.148;39.604;2022-10-31T01:29:05;100798.06;;;11.99;81.71
52032;BME280;38044;45.148;39.604;2022-10-31T01:31:33;100872.63;;;12.36;81.82
52032;BME280;38044;45.148;39.604;2022-10-31T01:34:00;100906.91;;;12.50;81.76
52032;BME280;38044;45.148;39.604;2022-10-31T01:36:31;100796.63;;;11.88;81.89
52032;BME280;38044;45.148;39.604;2022-10-31T01:39:00;100864.19;;;12.24;82.05
52032;BME280;38044;45.148;39.604;2022-10-31T01:41:29;100900.38;;;12.37;82.27
52032;BME280;38044;45.148;39.604;2022-10-31T01:49:52;100890.88;;;12.26;83.82
52032;BME280;38044;45.148;39.604;2022-10-31T01:52:24;100885.56;;;12.02;84.00
52032;BME280;38044;45.148;39.604;2022-10-31T01:55:05;100901.22;;;12.00;84.23
52032;BME280;38044;45.148;39.604;2022-10-31T01:57:33;100903.53;;;11.87;84.40
52032;BME280;38044;45.148;39.604;2022-10-31T02:00:06;100866.09;;;11.67;84.78
52032;BME280;38044;45.148;39.604;2022-10-31T02:02:32;100890.13;;;11.82;84.09
52032;BME280;38044;45.148;39.604;2022-10-31T02:05:00;100789.91;;;11.28;84.10
52032;BME280;38044;45.148;39.604;2022-10-31T02:07:32;100779.88;;;11.34;84.23
52032;BME280;38044;45.148;39.604;2022-10-31T02:10:00;100881.25;;;12.01;83.86
52032;BME280;38044;45.148;39.604;2022-10-31T02:12:29;100830.88;;;11.82;83.76
52032;BME280;38044;45.148;39.604;2022-10-31T02:14:56;100765.25;;;11.40;83.49
52032;BME280;38044;45.148;39.604;2022-10-31T02:17:21;100761.69;;;11.45;82.81
52032;BME280;38044;45.148;39.604;2022-10-31T02:28:34;100868.16;;;12.46;83.25
52032;BME280;38044;45.148;39.604;2022-10-31T02:33:41;100839.09;;;12.43;83.76
52032;BME280;38044;45.148;39.604;2022-10-31T02:36:16;100847.28;;;12.37;84.16
52032;BME280;38044;45.148;39.604;2022-10-31T02:39:17;100759.47;;;11.85;83.81
52032;BME280;38044;45.148;39.604;2022-10-31T02:41:52;100853.06;;;12.45;83.59
52032;BME280;38044;45.148;39.604;2022-10-31T02:44:29;100757.00;;;11.88;82.83
52032;BME280;38044;45.148;39.604;2022-10-31T02:46:59;100847.81;;;12.53;81.95
52032;BME280;38044;45.148;39.604;2022-10-31T02:49:32;100733.28;;;11.90;81.90
52032;BME280;38044;45.148;39.604;2022-10-31T02:51:59;100816.31;;;12.35;81.87
52032;BME280;38044;45.148;39.604;2022-10-31T02:54:27;100748.84;;;11.93;81.46
52032;BME280;38044;45.148;39.604;2022-10-31T02:57:00;100832.50;;;12.49;81.24
52032;BME280;38044;45.148;39.604;2022-10-31T02:59:29;100721.03;;;11.79;81.32
52032;BME280;38044;45.148;39.604;2022-10-31T03:15:59;100808.53;;;12.33;82.22
52032;BME280;38044;45.148;39.604;2022-10-31T03:18:33;100776.03;;;12.11;82.62
52032;BME280;38044;45.148;39.604;2022-10-31T03:23:35;100788.41;;;12.12;82.54
52032;BME280;38044;45.148;39.604;2022-10-31T03:26:04;100797.41;;;12.21;82.65
52032;BME280;38044;45.148;39.604;2022-10-31T03:28:38;100801.53;;;12.32;82.51
52032;BME280;38044;45.148;39.604;2022-10-31T03:31:08;100699.38;;;11.70;82.30
52032;BME280;38044;45.148;39.604;2022-10-31T03:33:37;100708.56;;;11.83;81.80
52032;BME280;38044;45.148;39.604;2022-10-31T03:36:07;100797.88;;;12.42;81.59
52032;BME280;38044;45.148;39.604;2022-10-31T03:38:35;100779.97;;;12.32;81.29
52032;BME280;38044;45.148;39.604;2022-10-31T03:41:03;100743.19;;;12.09;81.08
52032;BME280;38044;45.148;39.604;2022-10-31T03:43:34;100799.72;;;12.42;81.06
52032;BME280;38044;45.148;39.604;2022-10-31T03:46:03;100769.56;;;12.26;81.04
52032;BME280;38044;45.148;39.604;2022-10-31T03:48:30;100712.00;;;11.89;80.22
52032;BME280;38044;45.148;39.604;2022-10-31T03:51:10;100713.59;;;11.90;80.50
52032;BME280;38044;45.148;39.604;2022-10-31T03:53:56;100784.97;;;12.39;80.52
52032;BME280;38044;45.148;39.604;2022-10-31T03:56:46;100783.88;;;12.40;80.42
52032;BME280;38044;45.148;39.604;2022-10-31T03:59:36;100706.75;;;11.98;80.54
52032;BME280;38044;45.148;39.604;2022-10-31T04:02:13;100766.34;;;12.10;80.25
52032;BME280;38044;45.148;39.604;2022-10-31T04:04:40;100742.75;;;11.88;80.44
52032;BME280;38044;45.148;39.604;2022-10-31T04:07:09;100768.91;;;12.01;80.28
52032;BME280;38044;45.148;39.604;2022-10-31T04:09:38;100763.16;;;12.08;80.22
52032;BME280;38044;45.148;39.604;2022-10-31T04:12:08;100776.50;;;12.13;80.25
52032;BME280;38044;45.148;39.604;2022-10-31T04:14:38;100776.50;;;12.13;80.04
52032;BME280;38044;45.148;39.604;2022-10-31T04:17:07;100700.91;;;11.58;80.56
52032;BME280;38044;45.148;39.604;2022-10-31T04:19:35;100710.50;;;11.64;80.34
52032;BME280;38044;45.148;39.604;2022-10-31T04:22:10;100773.34;;;12.11;80.14
52032;BME280;38044;45.148;39.604;2022-10-31T04:24:37;100694.34;;;11.64;80.00
52032;BME280;38044;45.148;39.604;2022-10-31T04:27:04;100783.75;;;12.31;80.29
52032;BME280;38044;45.148;39.604;2022-10-31T04:29:29;100783.44;;;12.19;80.37
52032;BME280;38044;45.148;39.604;2022-10-31T04:31:55;100754.97;;;12.13;80.22
52032;BME280;38044;45.148;39.604;2022-10-31T04:34:21;100766.78;;;12.31;80.52
52032;BME280;38044;45.148;39.604;2022-10-31T04:36:47;100727.63;;;12.06;80.05
52032;BME280;38044;45.148;39.604;2022-10-31T04:39:13;100783.97;;;12.49;80.20
52032;BME280;38044;45.148;39.604;2022-10-31T04:41:38;100706.22;;;11.95;80.23
52032;BME280;38044;45.148;39.604;2022-10-31T04:44:04;100785.25;;;12.37;80.78
52032;BME280;38044;45.148;39.604;2022-10-31T04:46:30;100804.13;;;12.37;82.01
52032;BME280;38044;45.148;39.604;2022-10-31T04:48:56;100782.50;;;12.10;83.57
52032;BME280;38044;45.148;39.604;2022-10-31T04:51:22;100726.81;;;11.54;84.08
52032;BME280;38044;45.148;39.604;2022-10-31T04:53:47;100718.44;;;11.55;84.53
52032;BME280;38044;45.148;39.604;2022-10-31T04:56:13;100713.25;;;11.59;84.40
52032;BME280;38044;45.148;39.604;2022-10-31T04:58:39;100794.34;;;12.28;84.08
52032;BME280;38044;45.148;39.604;2022-10-31T05:01:05;100729.75;;;11.90;84.18
52032;BME280;38044;45.148;39.604;2022-10-31T05:03:31;100768.78;;;12.25;83.79
52032;BME280;38044;45.148;39.604;2022-10-31T05:05:57;100775.97;;;12.44;83.39
52032;BME280;38044;45.148;39.604;2022-10-31T05:08:22;100764.69;;;12.42;82.98
52032;BME280;38044;45.148;39.604;2022-10-31T05:10:48;100797.78;;;12.61;82.33
52032;BME280;38044;45.148;39.604;2022-10-31T05:13:14;100791.78;;;12.64;82.17
52032;BME280;38044;45.148;39.604;2022-10-31T05:15:41;100810.56;;;12.69;82.05
52032;BME280;38044;45.148;39.604;2022-10-31T05:18:07;100781.69;;;12.56;81.75
52032;BME280;38044;45.148;39.604;2022-10-31T05:20:33;100798.88;;;12.60;82.08
52032;BME280;38044;45.148;39.604;2022-10-31T05:22:59;100790.97;;;12.50;82.33
52032;BME280;38044;45.148;39.604;2022-10-31T05:25:27;100783.91;;;12.54;82.30
52032;BME280;38044;45.148;39.604;2022-10-31T05:27:54;100725.31;;;12.13;82.57
52032;BME280;38044;45.148;39.604;2022-10-31T05:30:23;100740.72;;;12.26;81.98
52032;BME280;38044;45.148;39.604;2022-10-31T05:32:50;100799.38;;;12.76;81.32
52032;BME280;38044;45.148;39.604;2022-10-31T05:35:20;100800.69;;;12.78;81.56
52032;BME280;38044;45.148;39.604;2022-10-31T05:37:46;100792.59;;;12.78;81.15
52032;BME280;38044;45.148;39.604;2022-10-31T05:40:13;100728.47;;;12.48;80.91
52032;BME280;38044;45.148;39.604;2022-10-31T05:42:40;100781.19;;;12.81;80.71
52032;BME280;38044;45.148;39.604;2022-10-31T05:45:08;100773.00;;;12.87;80.62
52032;BME280;38044;45.148;39.604;2022-10-31T05:47:34;100718.69;;;12.52;80.56
52032;BME280;38044;45.148;39.604;2022-10-31T05:49:59;100737.16;;;12.72;80.03
52032;BME280;38044;45.148;39.604;2022-10-31T05:52:25;100754.22;;;12.81;80.50
52032;BME280;38044;45.148;39.604;2022-10-31T05:54:51;100767.50;;;13.05;79.62
52032;BME280;38044;45.148;39.604;2022-10-31T05:57:16;100745.22;;;13.00;79.58
52032;BME280;38044;45.148;39.604;2022-10-31T05:59:42;100771.94;;;13.24;79.43
52032;BME280;38044;45.148;39.604;2022-10-31T06:02:08;100770.56;;;13.40;79.21
52032;BME280;38044;45.148;39.604;2022-10-31T06:04:34;100743.16;;;13.33;79.08
52032;BME280;38044;45.148;39.604;2022-10-31T06:07:00;100774.31;;;13.53;78.60
52032;BME280;38044;45.148;39.604;2022-10-31T06:09:26;100754.94;;;13.51;78.25
52032;BME280;38044;45.148;39.604;2022-10-31T06:11:52;100774.59;;;14.50;76.31
52032;BME280;38044;45.148;39.604;2022-10-31T06:14:17;100757.97;;;15.40;71.67
52032;BME280;38044;45.148;39.604;2022-10-31T06:16:43;100768.03;;;15.48;70.68
52032;BME280;38044;45.148;39.604;2022-10-31T06:19:09;100737.69;;;14.94;71.54
52032;BME280;38044;45.148;39.604;2022-10-31T06:21:35;100758.13;;;14.60;72.28
52032;BME280;38044;45.148;39.604;2022-10-31T06:24:01;100677.38;;;13.74;73.38
52032;BME280;38044;45.148;39.604;2022-10-31T06:26:27;100735.34;;;14.22;73.94
52032;BME280;38044;45.148;39.604;2022-10-31T06:28:52;100732.94;;;14.51;73.23
52032;BME280;38044;45.148;39.604;2022-10-31T06:31:18;100747.53;;;14.81;72.17
52032;BME280;38044;45.148;39.604;2022-10-31T06:33:44;100743.91;;;15.03;71.97
52032;BME280;38044;45.148;39.604;2022-10-31T06:36:10;100733.06;;;14.95;71.74
52032;BME280;38044;45.148;39.604;2022-10-31T06:38:36;100718.53;;;14.73;71.35
52032;BME280;38044;45.148;39.604;2022-10-31T06:41:05;100696.22;;;14.59;71.91
52032;BME280;38044;45.148;39.604;2022-10-31T06:43:32;100746.81;;;14.58;72.17
52032;BME280;38044;45.148;39.604;2022-10-31T06:46:02;100735.78;;;14.46;72.94
52032;BME280;38044;45.148;39.604;2022-10-31T06:48:28;100736.69;;;14.41;73.00
52032;BME280;38044;45.148;39.604;2022-10-31T06:50:57;100707.53;;;14.30;73.25
52032;BME280;38044;45.148;39.604;2022-10-31T06:53:24;100716.78;;;14.69;72.77
52032;BME280;38044;45.148;39.604;2022-10-31T06:55:49;100729.59;;;15.64;70.30
52032;BME280;38044;45.148;39.604;2022-10-31T06:58:15;100663.63;;;15.42;69.16
52032;BME280;38044;45.148;39.604;2022-10-31T07:00:41;100720.53;;;16.24;67.90
52032;BME280;38044;45.148;39.604;2022-10-31T07:03:11;100640.03;;;16.46;66.33
52032;BME280;38044;45.148;39.604;2022-10-31T07:05:37;100714.00;;;17.68;64.55
52032;BME280;38044;45.148;39.604;2022-10-31T07:08:06;100723.50;;;18.78;62.40
52032;BME280;38044;45.148;39.604;2022-10-31T07:10:35;100715.53;;;18.23;62.00
52032;BME280;38044;45.148;39.604;2022-10-31T07:13:04;100722.34;;;18.91;61.09
52032;BME280;38044;45.148;39.604;2022-10-31T07:15:33;100715.91;;;18.83;61.10
52032;BME280;38044;45.148;39.604;2022-10-31T07:18:07;100732.22;;;18.34;62.72
52032;BME280;38044;45.148;39.604;2022-10-31T07:20:34;100726.72;;;17.76;63.23
52032;BME280;38044;45.148;39.604;2022-10-31T07:23:00;100722.19;;;17.47;63.88
52032;BME280;38044;45.148;39.604;2022-10-31T07:25:26;100721.13;;;17.40;64.68
52032;BME280;38044;45.148;39.604;2022-10-31T07:27:52;100655.84;;;17.82;63.24
52032;BME280;38044;45.148;39.604;2022-10-31T07:30:18;100616.09;;;19.03;59.30
52032;BME280;38044;45.148;39.604;2022-10-31T07:32:46;100719.06;;;20.26;57.86
52032;BME280;38044;45.148;39.604;2022-10-31T07:35:15;100703.38;;;19.35;59.12
52032;BME280;38044;45.148;39.604;2022-10-31T07:37:41;100704.38;;;19.15;60.60
52032;BME280;38044;45.148;39.604;2022-10-31T07:40:08;100706.19;;;19.95;59.06
52032;BME280;38044;45.148;39.604;2022-10-31T07:42:42;100562.06;;;20.32;57.36
52032;BME280;38044;45.148;39.604;2022-10-31T07:45:10;100703.09;;;21.92;54.73
52032;BME280;38044;45.148;39.604;2022-10-31T07:47:40;100702.59;;;22.59;53.31
52032;BME280;38044;45.148;39.604;2022-10-31T07:50:07;100680.06;;;21.74;53.96
52032;BME280;38044;45.148;39.604;2022-10-31T07:52:33;100681.34;;;20.47;56.46
52032;BME280;38044;45.148;39.604;2022-10-31T07:55:00;100680.84;;;20.77;57.42
52032;BME280;38044;45.148;39.604;2022-10-31T07:57:25;100678.47;;;21.50;55.40
52032;BME280;38044;45.148;39.604;2022-10-31T07:59:51;100665.78;;;21.61;54.28
52032;BME280;38044;45.148;39.604;2022-10-31T08:02:17;100681.19;;;21.69;54.75
52032;BME280;38044;45.148;39.604;2022-10-31T08:04:43;100678.25;;;20.49;56.96
52032;BME280;38044;45.148;39.604;2022-10-31T08:07:09;100607.97;;;19.79;58.49
52032;BME280;38044;45.148;39.604;2022-10-31T08:09:34;100611.72;;;20.22;58.01
52032;BME280;38044;45.148;39.604;2022-10-31T08:12:00;100617.50;;;20.36;57.53
52032;BME280;38044;45.148;39.604;2022-10-31T08:14:27;100670.66;;;20.93;58.00
52032;BME280;38044;45.148;39.604;2022-10-31T08:16:53;100667.50;;;20.72;57.93
52032;BME280;38044;45.148;39.604;2022-10-31T08:19:19;100655.31;;;21.44;56.54
52032;BME280;38044;45.148;39.604;2022-10-31T08:21:45;100567.06;;;21.04;55.98
52032;BME280;38044;45.148;39.604;2022-10-31T08:24:11;100576.03;;;20.66;57.42
52032;BME280;38044;45.148;39.604;2022-10-31T08:26:37;100648.81;;;21.32;57.57
52032;BME280;38044;45.148;39.604;2022-10-31T08:29:03;100640.81;;;20.50;58.21
52032;BME280;38044;45.148;39.604;2022-10-31T08:31:29;100600.53;;;19.32;60.74
52032;BME280;38044;45.148;39.604;2022-10-31T08:33:55;100661.84;;;18.85;62.78
52032;BME280;38044;45.148;39.604;2022-10-31T08:36:21;100638.69;;;18.14;63.23
52032;BME280;38044;45.148;39.604;2022-10-31T08:38:47;100574.84;;;17.29;63.19
52032;BME280;38044;45.148;39.604;2022-10-31T08:41:13;100527.91;;;16.54;63.40
52032;BME280;38044;45.148;39.604;2022-10-31T08:43:39;100652.25;;;17.02;64.43
52032;BME280;38044;45.148;39.604;2022-10-31T08:46:05;100637.00;;;16.68;64.95
52032;BME280;38044;45.148;39.604;2022-10-31T08:48:32;100652.09;;;17.41;63.72
52032;BME280;38044;45.148;39.604;2022-10-31T08:50:59;100544.75;;;17.34;62.07
52032;BME280;38044;45.148;39.604;2022-10-31T08:53:25;100586.31;;;17.93;61.12
52032;BME280;38044;45.148;39.604;2022-10-31T08:55:54;100647.41;;;19.38;58.09
52032;BME280;38044;45.148;39.604;2022-10-31T08:58:21;100606.22;;;19.71;56.02
52032;BME280;38044;45.148;39.604;2022-10-31T09:00:50;100632.81;;;20.57;53.84
52032;BME280;38044;45.148;39.604;2022-10-31T09:03:22;100618.03;;;20.77;51.79
52032;BME280;38044;45.148;39.604;2022-10-31T09:05:48;100606.38;;;21.19;51.19
52032;BME280;38044;45.148;39.604;2022-10-31T09:08:15;100623.34;;;21.48;50.85
52032;BME280;38044;45.148;39.604;2022-10-31T09:10:41;100583.28;;;21.82;50.63
52032;BME280;38044;45.148;39.604;2022-10-31T09:13:10;100633.75;;;22.61;49.56
52032;BME280;38044;45.148;39.604;2022-10-31T09:15:39;100637.03;;;21.94;49.77
52032;BME280;38044;45.148;39.604;2022-10-31T09:18:05;100611.22;;;20.52;51.29
52032;BME280;38044;45.148;39.604;2022-10-31T09:20:33;100646.78;;;19.44;52.57
52032;BME280;38044;45.148;39.604;2022-10-31T09:23:03;100574.16;;;18.80;53.38
52032;BME280;38044;45.148;39.604;2022-10-31T09:25:30;100633.06;;;19.56;52.90
52032;BME280;38044;45.148;39.604;2022-10-31T09:28:00;100617.38;;;20.48;51.06
52032;BME280;38044;45.148;39.604;2022-10-31T09:30:28;100639.53;;;20.43;51.04
52032;BME280;38044;45.148;39.604;2022-10-31T09:33:04;100644.41;;;19.87;51.96
52032;BME280;38044;45.148;39.604;2022-10-31T09:35:30;100619.69;;;19.07;53.47
52032;BME280;38044;45.148;39.604;2022-10-31T09:37:57;100650.91;;;18.45;54.26
52032;BME280;38044;45.148;39.604;2022-10-31T09:40:34;100655.44;;;18.41;54.45
52032;BME280;38044;45.148;39.604;2022-10-31T09:46:09;100652.16;;;19.69;51.53
52032;BME280;38044;45.148;39.604;2022-10-31T09:51:45;100636.75;;;19.92;49.31
52032;BME280;38044;45.148;39.604;2022-10-31T09:54:56;100657.25;;;20.18;48.83
52032;BME280;38044;45.148;39.604;2022-10-31T09:57:02;100644.03;;;20.20;48.45
52032;BME280;38044;45.148;39.604;2022-10-31T09:59:39;100639.94;;;20.45;49.15
52032;BME280;38044;45.148;39.604;2022-10-31T10:02:30;100625.69;;;20.36;49.00
52032;BME280;38044;45.148;39.604;2022-10-31T10:05:03;100654.59;;;20.06;48.32
52032;BME280;38044;45.148;39.604;2022-10-31T10:10:09;100568.69;;;18.52;50.41
52032;BME280;38044;45.148;39.604;2022-10-31T10:13:02;100643.63;;;18.37;50.71
52032;BME280;38044;45.148;39.604;2022-10-31T10:23:52;100639.16;;;16.83;54.54
52032;BME280;38044;45.148;39.604;2022-10-31T10:26:30;100597.06;;;16.77;54.66
52032;BME280;38044;45.148;39.604;2022-10-31T10:29:26;100635.69;;;17.37;54.04
52032;BME280;38044;45.148;39.604;2022-10-31T10:31:53;100565.00;;;16.92;54.57
52032;BME280;38044;45.148;39.604;2022-10-31T10:35:01;100570.09;;;17.26;53.73
52032;BME280;38044;45.148;39.604;2022-10-31T10:37:39;100627.19;;;17.39;53.63
52032;BME280;38044;45.148;39.604;2022-10-31T10:40:18;100532.34;;;16.79;53.30
52032;BME280;38044;45.148;39.604;2022-10-31T10:49:00;100602.22;;;17.58;52.83
52032;BME280;38044;45.148;39.604;2022-10-31T10:51:57;100601.84;;;17.92;52.71
52032;BME280;38044;45.148;39.604;2022-10-31T10:54:46;100610.09;;;17.96;52.87
52032;BME280;38044;45.148;39.604;2022-10-31T10:59:40;100586.09;;;17.86;53.10
52032;BME280;38044;45.148;39.604;2022-10-31T11:02:24;100591.47;;;17.73;53.24
52032;BME280;38044;45.148;39.604;2022-10-31T11:04:55;100522.19;;;17.09;53.99
52032;BME280;38044;45.148;39.604;2022-10-31T11:07:22;100607.03;;;17.40;54.70
52032;BME280;38044;45.148;39.604;2022-10-31T11:09:49;100565.78;;;17.25;54.71
52032;BME280;38044;45.148;39.604;2022-10-31T11:12:32;100588.94;;;17.44;54.47
52032;BME280;38044;45.148;39.604;2022-10-31T11:15:02;100582.81;;;17.34;54.06
52032;BME280;38044;45.148;39.604;2022-10-31T11:17:32;100589.59;;;17.86;53.59
52032;BME280;38044;45.148;39.604;2022-10-31T11:22:42;100569.31;;;18.20;52.50
52032;BME280;38044;45.148;39.604;2022-10-31T11:25:24;100593.53;;;18.38;52.23
52032;BME280;38044;45.148;39.604;2022-10-31T11:28:04;100562.28;;;17.95;52.44
52032;BME280;38044;45.148;39.604;2022-10-31T11:30:42;100576.97;;;17.69;52.97
52032;BME280;38044;45.148;39.604;2022-10-31T11:33:20;100575.66;;;17.42;54.09
52032;BME280;38044;45.148;39.604;2022-10-31T11:35:47;100562.53;;;16.99;54.82
52032;BME280;38044;45.148;39.604;2022-10-31T11:38:18;100523.81;;;16.69;54.81
52032;BME280;38044;45.148;39.604;2022-10-31T11:40:57;100557.44;;;16.76;54.83
52032;BME280;38044;45.148;39.604;2022-10-31T11:43:24;100479.28;;;16.07;55.13
52032;BME280;38044;45.148;39.604;2022-10-31T11:45:51;100510.44;;;16.01;55.75
52032;BME280;38044;45.148;39.604;2022-10-31T11:48:20;100529.88;;;16.03;55.56
52032;BME280;38044;45.148;39.604;2022-10-31T11:50:56;100559.59;;;16.20;56.39
52032;BME280;38044;45.148;39.604;2022-10-31T11:53:27;100553.03;;;16.00;56.51
52032;BME280;38044;45.148;39.604;2022-10-31T11:56:13;100569.91;;;16.06;57.35
52032;BME280;38044;45.148;39.604;2022-10-31T11:58:40;100549.41;;;15.87;57.18
52032;BME280;38044;45.148;39.604;2022-10-31T12:01:23;100537.34;;;15.76;56.80
52032;BME280;38044;45.148;39.604;2022-10-31T12:04:04;100547.91;;;15.69;57.54
52032;BME280;38044;45.148;39.604;2022-10-31T12:06:43;100574.63;;;15.79;58.08
52032;BME280;38044;45.148;39.604;2022-10-31T12:09:28;100537.56;;;15.53;58.31
52032;BME280;38044;45.148;39.604;2022-10-31T12:20:23;100579.28;;;15.61;59.11
52032;BME280;38044;45.148;39.604;2022-10-31T12:25:36;100586.47;;;15.66;60.32
52032;BME280;38044;45.148;39.604;2022-10-31T12:34:19;100585.88;;;15.51;61.17
52032;BME280;38044;45.148;39.604;2022-10-31T12:39:44;100467.06;;;14.77;61.65
52032;BME280;38044;45.148;39.604;2022-10-31T12:43:36;100564.53;;;15.41;61.39
52032;BME280;38044;45.148;39.604;2022-10-31T12:51:15;100485.38;;;14.62;61.84
52032;BME280;38044;45.148;39.604;2022-10-31T13:01:30;100572.59;;;14.94;63.56
52032;BME280;38044;45.148;39.604;2022-10-31T13:04:08;100568.47;;;14.88;64.06
52032;BME280;38044;45.148;39.604;2022-10-31T13:06:42;100588.50;;;14.87;64.67
52032;BME280;38044;45.148;39.604;2022-10-31T13:09:17;100557.59;;;14.62;64.41
52032;BME280;38044;45.148;39.604;2022-10-31T13:11:48;100551.50;;;14.39;65.01
52032;BME280;38044;45.148;39.604;2022-10-31T13:14:39;100511.56;;;14.10;65.12
52032;BME280;38044;45.148;39.604;2022-10-31T13:20:33;100573.31;;;14.34;64.87
52032;BME280;38044;45.148;39.604;2022-10-31T13:25:53;100611.31;;;14.29;65.48
52032;BME280;38044;45.148;39.604;2022-10-31T13:28:35;100528.63;;;13.70;65.51
52032;BME280;38044;45.148;39.604;2022-10-31T13:31:02;100592.66;;;14.10;65.69
52032;BME280;38044;45.148;39.604;2022-10-31T13:36:21;100595.69;;;14.08;66.07
52032;BME280;38044;45.148;39.604;2022-10-31T13:38:53;100529.19;;;13.59;65.69
52032;BME280;38044;45.148;39.604;2022-10-31T13:41:49;100619.41;;;14.20;66.19
52032;BME280;38044;45.148;39.604;2022-10-31T13:44:21;100637.03;;;14.17;66.37
52032;BME280;38044;45.148;39.604;2022-10-31T13:46:51;100635.09;;;14.09;66.31
52032;BME280;38044;45.148;39.604;2022-10-31T13:52:15;100647.25;;;14.29;65.86
52032;BME280;38044;45.148;39.604;2022-10-31T13:54:44;100642.59;;;14.12;65.55
52032;BME280;38044;45.148;39.604;2022-10-31T13:57:30;100657.72;;;14.22;65.00
52032;BME280;38044;45.148;39.604;2022-10-31T14:00:00;100641.75;;;14.03;65.18
52032;BME280;38044;45.148;39.604;2022-10-31T14:02:29;100573.16;;;13.50;65.18
52032;BME280;38044;45.148;39.604;2022-10-31T14:04:59;100667.03;;;14.07;64.55
52032;BME280;38044;45.148;39.604;2022-10-31T14:07:27;100659.53;;;13.95;64.24
52032;BME280;38044;45.148;39.604;2022-10-31T14:10:06;100610.84;;;13.56;63.78
52032;BME280;38044;45.148;39.604;2022-10-31T14:12:46;100595.50;;;13.34;64.12
52032;BME280;38044;45.148;39.604;2022-10-31T14:15:22;100663.81;;;13.65;64.97
52032;BME280;38044;45.148;39.604;2022-10-31T14:22:44;100619.13;;;13.14;65.56
52032;BME280;38044;45.148;39.604;2022-10-31T14:25:33;100688.00;;;13.70;65.68
52032;BME280;38044;45.148;39.604;2022-10-31T14:28:01;100706.44;;;13.46;65.66
52032;BME280;38044;45.148;39.604;2022-10-31T14:30:29;100705.19;;;13.29;65.24
52032;BME280;38044;45.148;39.604;2022-10-31T14:32:59;100579.28;;;12.38;65.26
52032;BME280;38044;45.148;39.604;2022-10-31T14:38:36;100709.03;;;13.01;66.17
52032;BME280;38044;45.148;39.604;2022-10-31T14:53:01;100715.88;;;12.29;68.05
52032;BME280;38044;45.148;39.604;2022-10-31T14:55:29;100718.25;;;12.17;68.53
52032;BME280;38044;45.148;39.604;2022-10-31T14:58:00;100660.63;;;11.85;68.41
52032;BME280;38044;45.148;39.604;2022-10-31T15:00:28;100740.44;;;12.42;68.11
52032;BME280;38044;45.148;39.604;2022-10-31T15:03:18;100773.22;;;12.62;68.26